CheckWX is a tool to help pilots better visualize weather data.  It is not intended as a substitute for an official pre-flight weather briefing.

14:26:42 UTC

EFKS METAR
Kuusamo Airport
Kuusamo, Finland
Current

37 mins ago

EFKS 261350Z AUTO 29011KT CAVOK 15/M02 Q1016
Observed
Apr-26 @ 13:50 UTC
Wind
  • 290° at 11 KTS
Visibility
10,000+ meters
Flight Rules
VFR
Cloud Levels
  • Clear skies
Temperature
15°C / 59°F
Dewpoint
-2°C / 28°F
Humidity
31%
Altimeter
30" Hg
Pressure
1015.92 hPa
Previous

1 hour ago

EFKS 261320Z AUTO 29014KT CAVOK 15/M02 Q1016
Observed
Apr-26 @ 13:20 UTC
Wind
  • 290° at 14 KTS
Visibility
10,000+ meters
Flight Rules
VFR
Cloud Levels
  • Clear skies
Temperature
15°C / 59°F
Dewpoint
-2°C / 28°F
Humidity
31%
Altimeter
30" Hg
Pressure
1015.92 hPa
Previous

2 hours ago

EFKS 261250Z AUTO 29014KT CAVOK 16/M03 Q1016
Observed
Apr-26 @ 12:50 UTC
Wind
  • 290° at 14 KTS
Visibility
10,000+ meters
Flight Rules
VFR
Cloud Levels
  • Clear skies
Temperature
16°C / 61°F
Dewpoint
-3°C / 27°F
Humidity
27%
Altimeter
30" Hg
Pressure
1015.92 hPa